Hovedside
METAR-TAF:

METAR-TAF

Lufthavner :

Luleå lufthavn

Luleå, Sverige

breddegrad: 65-33N, lengdegrad: 022-08E, høyde over havet: 17 m

Gjeldene værobservasjon

Denne rapporten ble laget for 15 minutter siden, klokken 13:20 UTC
Vind 7 kt fra Sørvest
Temperatur 5°C
Luftfuktighet 38%
Trykk 1020 hPa
Sikt 10 km eller mer
ingen skyer under 1500 m og ingen bygeskyer

METAR: ESPA 221320Z 23007KT CAVOK 05/M08 Q1020

Tid: 14:35 (13:35 UTC)

Varsel

Denne rapporten ble laget for 2 timer og 9 minutter siden, klokken 11:26 UTC
Varsel gyldig fra 22. klokken 12 UTC til 22. klokken 21 UTC
Vind 4 kt fra Sør-sørvest
Sikt 10 km eller mer
ingen skyer under 1500 m og ingen bygeskyer
Blir
fra 22. klokken 15 UTC til 22. klokken 18 UTC
Vind 12 kt fra Sør med vindkast opp mot 26 kt
Sannsynlighet 30%
fra 22. klokken 20 UTC til 22. klokken 21 UTC
Sikt: 3000 m
Brutte skyer i en høyde av 1500 ft
snø

TAF: ESPA 221126Z 2212/2221 20004KT CAVOK BECMG 2215/2218 18012G26KT PROB30 2220/2221 3000 SN BKN015 RMK MIL

Værobservasjoner og værvarsel for over 4000 flyplasser (METAR- og TAF-rapporter).

Tilgjengelige stasjoner er representert av de røde og gule prikkene på kartet.

Hold musepekeren over prikken for å se navnet på stasjonen.

Klikk så for å se værobservasjoner og -varsler.

For å forandre kartet kan du klikke på den grønne knappen med svart kryss for å zoome inn, på den grønne knappen med strek for å zoome ut, eller på de grønne pilene for å se tilstøtende kart.


METAR-TAF: